createdAt,value
2019-01-15T00:00:21.559Z,1.47
2019-01-15T00:02:49.685Z,1.60
2019-01-15T00:05:17.840Z,1.63
2019-01-15T00:07:45.962Z,1.90
2019-01-15T00:10:14.142Z,1.60
2019-01-15T00:12:42.264Z,1.83
2019-01-15T00:15:10.769Z,1.90
2019-01-15T00:17:38.867Z,1.50
2019-01-15T00:20:10.458Z,1.87
2019-01-15T00:22:38.581Z,1.53
2019-01-15T00:25:07.233Z,1.70
2019-01-15T00:27:35.426Z,1.07
2019-01-15T00:30:05.140Z,1.73
2019-01-15T00:32:33.304Z,1.80
2019-01-15T00:35:01.525Z,2.27
2019-01-15T00:37:29.643Z,1.27
2019-01-15T00:39:57.754Z,1.20
2019-01-15T00:42:25.906Z,2.00
2019-01-15T00:44:54.102Z,1.70
2019-01-15T00:47:22.311Z,1.83
2019-01-15T00:49:50.434Z,2.17
2019-01-15T00:52:18.540Z,1.77
2019-01-15T00:54:46.670Z,1.50
2019-01-15T00:57:14.806Z,1.80
2019-01-15T00:59:42.931Z,1.93
2019-01-15T01:02:11.070Z,0.87
2019-01-15T01:04:39.226Z,1.70
2019-01-15T01:07:07.420Z,1.10
2019-01-15T01:09:35.532Z,2.10
2019-01-15T01:12:03.749Z,2.27
2019-01-15T01:14:31.881Z,1.87
2019-01-15T01:17:00.113Z,1.63
2019-01-15T01:19:28.652Z,1.53
2019-01-15T01:21:56.930Z,1.70
2019-01-15T01:24:25.117Z,1.30
2019-01-15T01:26:53.293Z,1.90
2019-01-15T01:29:21.408Z,1.97
2019-01-15T01:31:49.556Z,1.30
2019-01-15T01:34:17.693Z,1.57
2019-01-15T01:36:45.820Z,1.03
2019-01-15T01:39:13.960Z,1.33
2019-01-15T01:41:42.065Z,1.83
2019-01-15T01:44:10.164Z,1.50
2019-01-15T01:46:38.306Z,1.70
2019-01-15T01:49:06.446Z,1.10
2019-01-15T01:51:34.652Z,1.40
2019-01-15T01:54:07.973Z,1.60
2019-01-15T01:56:37.691Z,1.67
2019-01-15T01:59:05.835Z,1.57
2019-01-15T02:01:34.049Z,1.30
2019-01-15T02:04:02.244Z,2.03
2019-01-15T02:06:30.344Z,2.00
2019-01-15T02:08:58.457Z,1.60
2019-01-15T02:11:26.619Z,1.90
2019-01-15T02:13:54.793Z,1.77
2019-01-15T02:16:22.907Z,1.63
2019-01-15T02:18:51.023Z,1.63
2019-01-15T02:21:19.141Z,2.10
2019-01-15T02:23:47.249Z,1.47
2019-01-15T02:26:15.388Z,1.60
2019-01-15T02:28:43.580Z,2.03
2019-01-15T02:31:11.893Z,1.40
2019-01-15T02:33:40.095Z,2.30
2019-01-15T02:36:08.253Z,2.43
2019-01-15T02:38:36.390Z,2.07
2019-01-15T02:41:06.778Z,1.33
2019-01-15T02:43:34.961Z,1.30
2019-01-15T02:46:03.100Z,1.63
2019-01-15T02:48:31.243Z,1.47
2019-01-15T02:50:59.345Z,1.60
2019-01-15T02:53:27.509Z,2.87
2019-01-15T02:55:55.623Z,2.17
2019-01-15T02:58:23.745Z,1.87
2019-01-15T03:00:51.890Z,2.00
2019-01-15T03:03:19.992Z,2.20
2019-01-15T03:05:48.103Z,2.00
2019-01-15T03:08:16.237Z,1.83
2019-01-15T03:10:44.401Z,1.57
2019-01-15T03:13:12.541Z,2.00
2019-01-15T03:15:40.648Z,1.90
2019-01-15T03:18:08.764Z,1.80
2019-01-15T03:20:36.913Z,1.90
2019-01-15T03:23:05.039Z,1.33
2019-01-15T03:25:33.185Z,2.03
2019-01-15T03:28:01.384Z,2.47
2019-01-15T03:30:29.534Z,1.90
2019-01-15T03:32:57.705Z,1.23
2019-01-15T03:35:25.841Z,1.80
2019-01-15T03:37:54.016Z,2.13
2019-01-15T03:40:23.033Z,1.53
2019-01-15T03:42:51.281Z,1.93
2019-01-15T03:45:19.474Z,1.63
2019-01-15T03:47:47.659Z,1.30
2019-01-15T03:50:15.804Z,1.67
2019-01-15T03:52:43.993Z,1.67
2019-01-15T03:55:12.900Z,1.30
2019-01-15T03:57:41.197Z,1.83
2019-01-15T04:00:13.806Z,2.10
2019-01-15T04:02:42.187Z,2.03
2019-01-15T04:05:10.660Z,2.03
2019-01-15T04:07:39.270Z,1.23
2019-01-15T04:10:09.125Z,1.73
2019-01-15T04:12:37.294Z,1.83
2019-01-15T04:15:07.214Z,2.20
2019-01-15T04:17:35.345Z,2.07
2019-01-15T04:20:05.352Z,1.50
2019-01-15T04:22:33.470Z,2.13
2019-01-15T04:25:01.592Z,1.90
2019-01-15T04:27:29.745Z,2.00
2019-01-15T04:29:57.852Z,2.10
2019-01-15T04:32:25.985Z,2.50
2019-01-15T04:34:54.116Z,1.57
2019-01-15T04:37:22.292Z,2.40
2019-01-15T04:39:50.401Z,1.60
2019-01-15T04:42:18.532Z,1.43
2019-01-15T04:44:46.687Z,1.90
2019-01-15T04:47:14.879Z,1.70
2019-01-15T04:49:43.038Z,1.93
2019-01-15T04:52:11.201Z,2.13
2019-01-15T04:54:39.357Z,2.00
2019-01-15T04:57:07.653Z,1.40
2019-01-15T04:59:36.519Z,2.30
2019-01-15T05:02:04.724Z,1.83
2019-01-15T05:04:32.934Z,2.20
2019-01-15T05:07:01.041Z,2.03
2019-01-15T05:09:29.176Z,1.70
2019-01-15T05:11:57.280Z,2.50
2019-01-15T05:14:25.421Z,2.00
2019-01-15T05:16:53.557Z,0.93
2019-01-15T05:19:21.756Z,2.03
2019-01-15T05:21:49.894Z,2.10
2019-01-15T05:24:18.025Z,1.93
2019-01-15T05:26:46.170Z,1.73
2019-01-15T05:29:14.341Z,1.97
2019-01-15T05:31:42.452Z,1.87
2019-01-15T05:34:10.585Z,1.90
2019-01-15T05:36:38.744Z,1.87
2019-01-15T05:39:07.610Z,2.23
2019-01-15T05:41:35.762Z,1.50
2019-01-15T05:44:03.957Z,1.20
2019-01-15T05:46:32.142Z,2.20
2019-01-15T05:49:00.502Z,2.00
2019-01-15T05:54:10.726Z,1.20
2019-01-15T05:56:38.906Z,1.90
2019-01-15T05:59:07.021Z,1.10
2019-01-15T06:01:35.912Z,1.80
2019-01-15T06:04:04.132Z,1.70
2019-01-15T06:06:32.351Z,2.53
2019-01-15T06:09:00.563Z,1.43
2019-01-15T06:11:28.769Z,1.70
2019-01-15T06:13:56.873Z,1.30
2019-01-15T06:16:25.021Z,1.73
2019-01-15T06:18:54.685Z,1.23
2019-01-15T06:21:22.821Z,1.50
2019-01-15T06:23:50.949Z,1.83
2019-01-15T06:26:19.228Z,1.70
2019-01-15T06:28:47.408Z,1.83
2019-01-15T06:31:16.646Z,1.80
2019-01-15T06:33:44.774Z,1.53
2019-01-15T06:36:12.880Z,1.00
2019-01-15T06:38:41.017Z,1.00
2019-01-15T06:41:09.160Z,1.27
2019-01-15T06:43:37.288Z,1.60
2019-01-15T06:46:05.621Z,1.30
2019-01-15T06:48:33.735Z,1.40
2019-01-15T06:51:01.833Z,1.73
2019-01-15T06:53:29.943Z,2.20
2019-01-15T06:55:58.051Z,1.60
2019-01-15T06:58:26.209Z,1.47
2019-01-15T07:00:54.329Z,1.30
2019-01-15T07:03:22.502Z,1.87
2019-01-15T07:05:50.622Z,0.60
2019-01-15T07:08:18.729Z,1.60
2019-01-15T07:10:46.879Z,1.40
2019-01-15T07:13:15.125Z,1.90
2019-01-15T07:15:43.271Z,1.10
2019-01-15T07:18:11.442Z,1.43
2019-01-15T07:20:39.677Z,2.00
2019-01-15T07:23:07.824Z,1.37
2019-01-15T07:25:36.218Z,1.30
2019-01-15T07:28:04.656Z,1.40
2019-01-15T07:30:36.931Z,1.27
2019-01-15T07:33:05.781Z,1.37
2019-01-15T07:35:33.937Z,1.00
2019-01-15T07:38:02.081Z,0.83
2019-01-15T07:40:30.225Z,1.07
2019-01-15T07:42:58.428Z,1.40
2019-01-15T07:45:26.569Z,1.87
2019-01-15T07:47:57.402Z,0.80
2019-01-15T07:50:25.551Z,0.83
2019-01-15T07:52:53.666Z,1.60
2019-01-15T07:55:22.353Z,0.53
2019-01-15T07:57:51.042Z,1.30
2019-01-15T08:00:20.720Z,1.07
2019-01-15T08:02:49.238Z,1.30
2019-01-15T08:05:18.576Z,1.67
2019-01-15T08:07:46.740Z,1.03
2019-01-15T08:10:16.471Z,1.37
2019-01-15T08:12:44.838Z,1.23
2019-01-15T08:15:20.227Z,0.73
2019-01-15T08:17:48.408Z,1.10
2019-01-15T08:20:16.555Z,1.57
2019-01-15T08:22:44.726Z,1.10
2019-01-15T08:25:13.692Z,1.53
2019-01-15T08:27:41.965Z,1.37
2019-01-15T08:30:17.084Z,2.43
2019-01-15T08:32:45.202Z,0.73
2019-01-15T08:35:14.115Z,1.40
2019-01-15T08:37:42.249Z,1.23
2019-01-15T08:40:11.661Z,0.87
2019-01-15T08:42:39.922Z,1.07
2019-01-15T08:45:09.310Z,1.40
2019-01-15T08:47:39.094Z,1.07
2019-01-15T08:50:08.732Z,0.97
2019-01-15T08:52:36.877Z,1.13
2019-01-15T08:55:11.728Z,1.07
2019-01-15T08:57:39.881Z,1.30
2019-01-15T09:00:12.167Z,1.20
2019-01-15T09:02:40.302Z,1.57
2019-01-15T09:05:08.614Z,1.33
2019-01-15T09:07:36.849Z,1.30
2019-01-15T09:10:06.932Z,1.50
2019-01-15T09:12:35.776Z,0.83
2019-01-15T09:15:05.461Z,0.97
2019-01-15T09:17:33.572Z,1.17
2019-01-15T09:20:01.701Z,1.77
2019-01-15T09:22:29.822Z,1.40
2019-01-15T09:24:57.957Z,1.63
2019-01-15T09:27:26.076Z,1.63
2019-01-15T09:29:54.192Z,1.40
2019-01-15T09:32:22.358Z,1.50
2019-01-15T09:34:50.523Z,1.50
2019-01-15T09:37:18.789Z,1.73
2019-01-15T09:39:46.923Z,1.07
2019-01-15T09:42:15.092Z,1.57
2019-01-15T09:44:43.504Z,1.57
2019-01-15T09:47:11.613Z,1.47
2019-01-15T09:49:47.286Z,1.23
2019-01-15T09:52:20.482Z,1.90
2019-01-15T09:54:45.407Z,1.17
2019-01-15T09:57:13.618Z,2.00
2019-01-15T09:59:41.827Z,2.23
2019-01-15T10:02:10.029Z,1.60
2019-01-15T10:04:38.152Z,1.80
2019-01-15T10:07:06.294Z,1.80
2019-01-15T10:09:34.415Z,1.87
2019-01-15T10:12:02.734Z,2.37
2019-01-15T10:14:30.944Z,1.90
2019-01-15T10:16:59.182Z,1.87
2019-01-15T10:19:27.393Z,1.80
2019-01-15T10:21:55.621Z,2.30
2019-01-15T10:24:23.752Z,1.37
2019-01-15T10:26:52.048Z,1.80
2019-01-15T10:29:21.663Z,2.03
2019-01-15T10:31:58.609Z,2.20
2019-01-15T10:34:28.305Z,1.93
2019-01-15T10:36:55.902Z,2.67
2019-01-15T10:39:24.140Z,1.50
2019-01-15T10:41:52.302Z,1.33
2019-01-15T10:44:20.497Z,2.33
2019-01-15T10:46:48.621Z,2.37
2019-01-15T10:49:16.738Z,1.60
2019-01-15T10:51:44.892Z,1.77
2019-01-15T10:54:13.105Z,1.93
2019-01-15T10:56:41.216Z,2.13
2019-01-15T10:59:09.332Z,9.97
2019-01-15T11:01:37.484Z,13.77
2019-01-15T11:04:05.634Z,3.97
2019-01-15T11:06:33.858Z,5.70
2019-01-15T11:09:02.001Z,5.30
2019-01-15T11:11:30.129Z,2.20
2019-01-15T11:13:58.262Z,3.00
2019-01-15T11:16:26.398Z,4.07
2019-01-15T11:18:54.589Z,2.63
2019-01-15T11:21:22.721Z,3.30
2019-01-15T11:23:50.832Z,2.80
2019-01-15T11:26:19.812Z,2.60
2019-01-15T11:28:48.321Z,2.77
2019-01-15T11:31:16.425Z,3.20
2019-01-15T11:33:44.579Z,2.50
2019-01-15T11:36:12.812Z,2.50
2019-01-15T11:38:41.029Z,2.80
2019-01-15T11:41:09.262Z,2.57
2019-01-15T11:43:39.014Z,2.20
2019-01-15T11:46:07.359Z,2.73
2019-01-15T11:48:35.503Z,3.00
2019-01-15T11:51:03.776Z,3.83
2019-01-15T11:53:31.906Z,2.90
2019-01-15T11:56:00.090Z,3.10
2019-01-15T11:58:28.199Z,3.10
2019-01-15T12:00:57.990Z,2.70
2019-01-15T12:03:42.891Z,3.20
2019-01-15T12:06:21.672Z,3.90
2019-01-15T12:08:57.429Z,3.20
2019-01-15T12:11:27.215Z,3.23
2019-01-15T12:14:05.956Z,3.73
2019-01-15T12:16:41.545Z,3.60
2019-01-15T12:19:20.381Z,3.23
2019-01-15T12:21:56.216Z,3.73
2019-01-15T12:24:31.658Z,3.47
2019-01-15T12:27:07.229Z,3.43
2019-01-15T12:29:36.976Z,2.33
2019-01-15T12:32:06.775Z,3.07
2019-01-15T12:34:36.648Z,3.50
2019-01-15T12:37:18.502Z,4.47
2019-01-15T12:39:48.274Z,2.70
2019-01-15T12:42:18.024Z,3.90
2019-01-15T12:44:47.770Z,2.90
2019-01-15T12:47:36.245Z,3.60
2019-01-15T12:50:13.489Z,3.80
2019-01-15T12:52:59.880Z,3.77
2019-01-15T12:55:29.634Z,3.20
2019-01-15T12:58:05.161Z,3.37
2019-01-15T13:00:43.754Z,4.17
2019-01-15T13:03:13.633Z,3.90
2019-01-15T13:05:59.473Z,4.20
2019-01-15T13:08:29.331Z,3.87
2019-01-15T13:11:07.924Z,4.43
2019-01-15T13:13:46.672Z,4.27
2019-01-15T13:16:16.469Z,5.03
2019-01-15T13:18:46.280Z,5.43
2019-01-15T13:21:16.090Z,4.13
2019-01-15T13:23:51.919Z,5.00
2019-01-15T13:26:24.830Z,4.63
2019-01-15T13:28:57.128Z,5.47
2019-01-15T13:31:43.283Z,5.20
2019-01-15T13:34:13.020Z,5.43
2019-01-15T13:36:48.455Z,5.87
2019-01-15T13:39:21.233Z,5.13
2019-01-15T13:41:53.807Z,5.43
2019-01-15T13:44:26.633Z,7.00
2019-01-15T13:47:05.630Z,4.63
2019-01-15T13:49:43.868Z,7.00
2019-01-15T13:52:25.756Z,7.13
2019-01-15T13:55:12.238Z,7.40
2019-01-15T13:57:56.005Z,7.83
2019-01-15T14:00:33.381Z,7.20
2019-01-15T14:03:19.730Z,5.93
2019-01-15T14:06:05.980Z,7.40
2019-01-15T14:08:35.775Z,7.27
2019-01-15T14:11:05.894Z,5.93
2019-01-15T14:13:47.717Z,7.47
2019-01-15T14:16:33.641Z,6.47
2019-01-15T14:19:19.963Z,6.53
2019-01-15T14:22:06.182Z,6.40
2019-01-15T14:24:38.955Z,5.13
2019-01-15T14:27:17.541Z,5.47
2019-01-15T14:29:47.320Z,6.83
2019-01-15T14:32:19.733Z,5.27
2019-01-15T14:34:49.496Z,5.87
2019-01-15T14:37:25.320Z,7.87
2019-01-15T14:39:55.109Z,7.40
2019-01-15T14:42:34.024Z,7.07
2019-01-15T14:45:03.897Z,7.40
2019-01-15T14:47:48.765Z,6.27
2019-01-15T14:50:30.520Z,7.53
2019-01-15T14:53:18.431Z,7.43
2019-01-15T14:56:04.658Z,5.37
2019-01-15T14:58:47.990Z,7.13
2019-01-15T15:01:30.237Z,7.03
2019-01-15T15:04:03.160Z,6.73
2019-01-15T15:06:47.962Z,7.03
2019-01-15T15:09:17.743Z,7.07
2019-01-15T15:11:47.672Z,4.53
2019-01-15T15:14:20.169Z,7.50
2019-01-15T15:16:52.677Z,7.60
2019-01-15T15:19:28.390Z,8.10
2019-01-15T15:22:01.280Z,6.57
2019-01-15T15:24:37.160Z,6.77
2019-01-15T15:27:09.615Z,7.17
2019-01-15T15:29:39.380Z,6.73
2019-01-15T15:32:11.931Z,8.13
2019-01-15T15:34:58.401Z,8.00
2019-01-15T15:37:30.866Z,6.33
2019-01-15T15:40:01.675Z,7.20
2019-01-15T15:42:37.466Z,6.80
2019-01-15T15:45:23.543Z,7.07
2019-01-15T15:48:02.564Z,6.13
2019-01-15T15:50:32.340Z,7.27
2019-01-15T15:53:20.827Z,8.57
2019-01-15T15:55:50.645Z,6.00
2019-01-15T15:58:23.137Z,4.87
2019-01-15T16:00:55.577Z,7.47
2019-01-15T16:03:31.225Z,6.10
2019-01-15T16:06:10.393Z,5.87
2019-01-15T16:08:52.740Z,7.67
2019-01-15T16:11:34.495Z,6.23
2019-01-15T16:14:04.265Z,8.93
2019-01-15T16:16:37.108Z,8.47
2019-01-15T16:19:09.841Z,7.80
2019-01-15T16:21:45.516Z,9.40
2019-01-15T16:24:18.242Z,8.33
2019-01-15T16:26:48.016Z,8.50
2019-01-15T16:29:35.979Z,8.37
2019-01-15T16:32:22.221Z,4.27
2019-01-15T16:34:58.153Z,8.43
2019-01-15T16:37:27.950Z,7.43
2019-01-15T16:39:57.740Z,9.47
2019-01-15T16:42:43.648Z,9.53
2019-01-15T16:45:16.686Z,6.80
2019-01-15T16:47:54.000Z,9.83
2019-01-15T16:50:23.781Z,10.50
2019-01-15T16:52:56.270Z,10.13
2019-01-15T16:55:44.391Z,2.87
2019-01-15T16:58:17.254Z,7.73
2019-01-15T17:01:03.523Z,9.67
2019-01-15T17:03:42.094Z,4.27
2019-01-15T17:06:11.985Z,4.53
2019-01-15T17:08:56.537Z,6.77
2019-01-15T17:11:32.257Z,8.73
2019-01-15T17:14:20.210Z,7.43
2019-01-15T17:16:54.189Z,5.50
2019-01-15T17:19:36.221Z,7.70
2019-01-15T17:22:14.944Z,6.70
2019-01-15T17:24:59.764Z,6.07
2019-01-15T17:27:38.426Z,6.97
2019-01-15T17:30:09.752Z,7.40
2019-01-15T17:32:39.586Z,7.43
2019-01-15T17:35:18.170Z,6.20
2019-01-15T17:38:02.980Z,7.23
2019-01-15T17:40:47.445Z,6.00
2019-01-15T17:43:33.315Z,6.67
2019-01-15T17:46:05.465Z,7.27
2019-01-15T17:48:50.572Z,7.10
2019-01-15T17:51:29.338Z,5.20
2019-01-15T17:54:08.137Z,7.30
2019-01-15T17:56:54.720Z,6.73
2019-01-15T17:59:24.577Z,6.33
2019-01-15T18:01:57.289Z,5.13
2019-01-15T18:04:29.750Z,6.73
2019-01-15T18:06:59.558Z,6.50
2019-01-15T18:09:38.240Z,5.90
2019-01-15T18:12:13.946Z,4.70
2019-01-15T18:15:00.321Z,3.90
2019-01-15T18:17:33.018Z,5.63
2019-01-15T18:20:15.308Z,2.67
2019-01-15T18:23:01.680Z,6.33
2019-01-15T18:25:43.435Z,4.80
2019-01-15T18:28:15.993Z,4.20
2019-01-15T18:31:04.323Z,3.97
2019-01-15T18:33:43.241Z,2.47
2019-01-15T18:36:15.685Z,4.50
2019-01-15T18:38:57.486Z,3.20
2019-01-15T18:41:27.301Z,4.47
2019-01-15T18:44:13.593Z,4.03
2019-01-15T18:46:59.822Z,5.27
2019-01-15T18:49:32.521Z,3.67
2019-01-15T18:52:08.553Z,3.03
2019-01-15T18:54:54.601Z,5.00
2019-01-15T18:57:27.143Z,5.73
2019-01-15T19:00:09.007Z,4.63
2019-01-15T19:02:53.827Z,5.73
2019-01-15T19:05:23.668Z,4.67
2019-01-15T19:07:53.426Z,4.83
2019-01-15T19:10:31.640Z,5.77
2019-01-15T19:13:01.404Z,3.70
2019-01-15T19:15:37.294Z,3.97
2019-01-15T19:18:23.991Z,4.23
2019-01-15T19:21:06.194Z,4.10
2019-01-15T19:23:52.773Z,3.97
2019-01-15T19:26:22.659Z,4.80
2019-01-15T19:28:55.165Z,4.13
2019-01-15T19:31:41.693Z,3.20
2019-01-15T19:34:23.295Z,4.80
2019-01-15T19:37:08.523Z,4.70
2019-01-15T19:39:41.120Z,5.30
2019-01-15T19:42:10.980Z,2.83
2019-01-15T19:44:57.404Z,4.93
2019-01-15T19:47:30.946Z,4.80
2019-01-15T19:50:17.388Z,5.80
2019-01-15T19:53:00.845Z,4.57
2019-01-15T19:55:30.877Z,5.73
2019-01-15T19:58:10.383Z,3.97
2019-01-15T20:00:42.842Z,4.83
2019-01-15T20:03:21.779Z,4.70
2019-01-15T20:05:51.556Z,6.80
2019-01-15T20:08:39.622Z,4.60
2019-01-15T20:11:12.373Z,5.47
2019-01-15T20:13:48.110Z,5.80
2019-01-15T20:16:18.906Z,3.90
2019-01-15T20:18:48.698Z,4.30
2019-01-15T20:21:24.515Z,5.90
2019-01-15T20:24:00.790Z,4.37
2019-01-15T20:26:34.599Z,5.53
2019-01-15T20:29:10.234Z,4.17
2019-01-15T20:31:48.772Z,4.90
2019-01-15T20:34:27.589Z,5.50
2019-01-15T20:37:09.218Z,4.03
2019-01-15T20:39:45.381Z,5.97
2019-01-15T20:42:21.211Z,4.80
2019-01-15T20:45:08.007Z,5.70
2019-01-15T20:47:40.588Z,5.40
2019-01-15T20:50:11.279Z,5.47
2019-01-15T20:52:58.019Z,5.63
2019-01-15T20:55:34.021Z,4.60
2019-01-15T20:58:15.496Z,4.60
2019-01-15T21:00:48.314Z,4.87
2019-01-15T21:03:34.449Z,5.23
2019-01-15T21:06:20.606Z,4.60
2019-01-15T21:08:50.453Z,4.97
2019-01-15T21:11:22.883Z,5.83
2019-01-15T21:13:58.522Z,5.43
2019-01-15T21:16:37.051Z,5.40
2019-01-15T21:19:12.855Z,4.67
2019-01-15T21:21:42.657Z,3.43
2019-01-15T21:24:17.342Z,4.40
2019-01-15T21:26:47.167Z,4.13
2019-01-15T21:29:35.297Z,3.53
2019-01-15T21:32:20.447Z,4.07
2019-01-15T21:34:58.943Z,3.80
2019-01-15T21:37:37.825Z,4.20
2019-01-15T21:40:10.877Z,2.20
2019-01-15T21:42:46.568Z,3.33
2019-01-15T21:45:35.017Z,2.40
2019-01-15T21:48:16.960Z,4.13
2019-01-15T21:50:49.735Z,3.60
2019-01-15T21:53:28.536Z,3.97
2019-01-15T21:56:01.389Z,3.57
2019-01-15T21:58:37.145Z,3.23
2019-01-15T22:01:13.296Z,3.77
2019-01-15T22:03:43.096Z,4.23
2019-01-15T22:06:15.858Z,3.27
2019-01-15T22:08:54.414Z,3.80
2019-01-15T22:11:24.203Z,1.57
2019-01-15T22:14:10.785Z,3.50
2019-01-15T22:16:43.081Z,3.53
2019-01-15T22:19:18.941Z,2.80
2019-01-15T22:22:00.957Z,3.00
2019-01-15T22:24:30.698Z,2.63
2019-01-15T22:27:06.157Z,2.27
2019-01-15T22:29:44.436Z,3.90
2019-01-15T22:32:30.264Z,3.13
2019-01-15T22:35:08.872Z,4.20
2019-01-15T22:37:44.316Z,4.47
2019-01-15T22:40:17.075Z,3.03
2019-01-15T22:42:49.682Z,6.00
2019-01-15T22:45:22.426Z,5.53
2019-01-15T22:48:05.107Z,5.43
2019-01-15T22:50:34.853Z,5.03
2019-01-15T22:53:07.248Z,5.13
2019-01-15T22:55:37.013Z,4.93
2019-01-15T22:58:23.305Z,3.83
2019-01-15T23:01:09.313Z,5.40
2019-01-15T23:03:42.303Z,3.83
2019-01-15T23:06:30.205Z,6.50
2019-01-15T23:11:51.084Z,6.90
2019-01-15T23:14:20.853Z,4.20
2019-01-15T23:16:50.610Z,4.47
2019-01-15T23:19:29.142Z,7.00
2019-01-15T23:21:58.960Z,6.07
2019-01-15T23:24:28.725Z,5.03
2019-01-15T23:27:04.459Z,5.07
2019-01-15T23:29:50.318Z,7.13
2019-01-15T23:32:20.161Z,5.40
2019-01-15T23:34:49.980Z,6.60
2019-01-15T23:37:22.749Z,5.17
2019-01-15T23:39:52.659Z,4.17
2019-01-15T23:42:31.074Z,5.80
2019-01-15T23:45:03.451Z,6.50
2019-01-15T23:47:35.964Z,4.23
2019-01-15T23:50:19.870Z,3.03
2019-01-15T23:53:07.957Z,5.67
2019-01-15T23:55:55.735Z,6.13
2019-01-15T23:58:34.481Z,3.50
